createdAt,value
2023-04-26T00:00:09.242Z,5.82
2023-04-26T00:02:37.648Z,5.76
2023-04-26T00:05:05.243Z,5.74
2023-04-26T00:07:35.530Z,5.68
2023-04-26T00:10:05.029Z,5.77
2023-04-26T00:12:33.983Z,5.87
2023-04-26T00:15:00.748Z,5.92
2023-04-26T00:17:27.430Z,5.96
2023-04-26T00:19:57.612Z,6.03
2023-04-26T00:22:27.032Z,6.01
2023-04-26T00:24:56.139Z,5.88
2023-04-26T00:27:22.711Z,5.86
2023-04-26T00:29:51.487Z,5.94
2023-04-26T00:32:18.032Z,6.04
2023-04-26T00:34:44.579Z,6.07
2023-04-26T00:37:16.662Z,6.09
2023-04-26T00:39:43.308Z,6.04
2023-04-26T00:42:12.193Z,6.04
2023-04-26T00:44:41.728Z,5.95
2023-04-26T00:47:13.144Z,5.87
2023-04-26T00:49:40.742Z,5.83
2023-04-26T00:52:09.950Z,5.80
2023-04-26T00:54:36.594Z,5.82
2023-04-26T00:57:03.604Z,5.80
2023-04-26T00:59:30.599Z,5.78
2023-04-26T01:02:00.264Z,5.78
2023-04-26T01:04:27.678Z,5.78
2023-04-26T01:06:56.593Z,5.78
2023-04-26T01:09:28.144Z,5.74
2023-04-26T01:11:58.138Z,5.70
2023-04-26T01:14:27.544Z,5.69
2023-04-26T01:16:59.928Z,5.67
2023-04-26T01:19:26.516Z,5.64
2023-04-26T01:21:55.525Z,5.63
2023-04-26T01:24:22.064Z,5.56
2023-04-26T01:26:48.897Z,5.56
2023-04-26T01:29:24.302Z,5.56
2023-04-26T01:31:51.018Z,5.58
2023-04-26T01:34:17.666Z,5.58
2023-04-26T01:36:44.227Z,5.56
2023-04-26T01:39:10.810Z,5.57
2023-04-26T01:41:37.423Z,5.57
2023-04-26T01:44:06.774Z,5.43
2023-04-26T01:46:38.381Z,5.47
2023-04-26T01:49:05.210Z,5.56
2023-04-26T01:51:32.714Z,5.58
2023-04-26T01:54:06.684Z,5.53
2023-04-26T01:56:35.538Z,5.57
2023-04-26T01:59:04.612Z,5.50
2023-04-26T02:01:35.854Z,5.42
2023-04-26T02:04:02.690Z,5.24
2023-04-26T02:06:32.375Z,5.45
2023-04-26T02:08:58.928Z,5.50
2023-04-26T02:11:28.028Z,5.46
2023-04-26T02:13:54.735Z,5.37
2023-04-26T02:16:21.815Z,5.24
2023-04-26T02:18:51.054Z,5.22
2023-04-26T02:21:21.577Z,5.20
2023-04-26T02:23:48.431Z,5.08
2023-04-26T02:26:15.082Z,4.95
2023-04-26T02:28:42.126Z,4.84
2023-04-26T02:31:09.053Z,4.66
2023-04-26T02:33:36.063Z,4.64
2023-04-26T02:36:06.415Z,4.61
2023-04-26T02:38:38.842Z,4.69
2023-04-26T02:41:07.636Z,4.71
2023-04-26T02:43:36.482Z,4.64
2023-04-26T02:46:03.049Z,4.75
2023-04-26T02:48:29.644Z,4.67
2023-04-26T02:50:58.635Z,4.58
2023-04-26T02:53:25.276Z,4.52
2023-04-26T02:55:54.314Z,4.57
2023-04-26T02:58:23.100Z,4.56
2023-04-26T03:00:49.706Z,4.44
2023-04-26T03:03:16.777Z,4.17
2023-04-26T03:05:43.597Z,4.31
2023-04-26T03:08:14.798Z,4.28
2023-04-26T03:10:44.365Z,4.23
2023-04-26T03:13:13.424Z,4.34
2023-04-26T03:15:44.672Z,4.42
2023-04-26T03:18:13.751Z,4.09
2023-04-26T03:20:43.142Z,4.18
2023-04-26T03:23:14.508Z,4.27
2023-04-26T03:25:43.602Z,4.47
2023-04-26T03:28:15.043Z,4.59
2023-04-26T03:30:41.651Z,4.64
2023-04-26T03:33:08.297Z,4.47
2023-04-26T03:35:34.858Z,4.60
2023-04-26T03:38:03.919Z,4.74
2023-04-26T03:40:30.621Z,4.74
2023-04-26T03:42:59.374Z,4.56
2023-04-26T03:45:28.506Z,4.67
2023-04-26T03:47:55.165Z,4.71
2023-04-26T03:50:24.240Z,4.73
2023-04-26T03:52:53.142Z,4.86
2023-04-26T03:55:19.841Z,4.78
2023-04-26T03:57:46.415Z,4.86
2023-04-26T04:00:14.284Z,4.80
2023-04-26T04:02:44.256Z,4.85
2023-04-26T04:05:13.472Z,4.82
2023-04-26T04:07:42.890Z,4.97
2023-04-26T04:10:11.881Z,4.87
2023-04-26T04:12:40.804Z,4.86
2023-04-26T04:15:10.094Z,5.07
2023-04-26T04:17:39.091Z,5.11
2023-04-26T04:20:08.716Z,5.12
2023-04-26T04:22:39.848Z,4.83
2023-04-26T04:25:13.867Z,4.73
2023-04-26T04:27:45.459Z,4.77
2023-04-26T04:30:12.516Z,4.77
2023-04-26T04:32:40.174Z,4.93
2023-04-26T04:35:07.468Z,5.01
2023-04-26T04:37:34.884Z,4.74
2023-04-26T04:40:01.700Z,4.82
2023-04-26T04:42:28.373Z,4.79
2023-04-26T04:44:55.203Z,4.91
2023-04-26T04:47:21.780Z,4.48
2023-04-26T04:49:48.316Z,4.45
2023-04-26T04:52:16.810Z,4.52
2023-04-26T04:54:44.762Z,4.38
2023-04-26T04:57:13.956Z,4.55
2023-04-26T04:59:42.709Z,4.65
2023-04-26T05:02:09.363Z,4.70
2023-04-26T05:04:36.320Z,4.88
2023-04-26T05:07:06.725Z,5.00
2023-04-26T05:09:33.613Z,5.04
2023-04-26T05:12:00.169Z,5.01
2023-04-26T05:14:27.236Z,5.15
2023-04-26T05:16:54.602Z,5.28
2023-04-26T05:19:26.143Z,5.37
2023-04-26T05:21:57.206Z,5.43
2023-04-26T05:24:23.769Z,5.34
2023-04-26T05:26:50.345Z,5.03
2023-04-26T05:29:17.196Z,5.08
2023-04-26T05:31:43.820Z,5.16
2023-04-26T05:34:12.966Z,5.33
2023-04-26T05:36:44.211Z,5.43
2023-04-26T05:39:13.308Z,5.36
2023-04-26T05:41:42.418Z,5.36
2023-04-26T05:44:13.517Z,5.47
2023-04-26T05:46:40.360Z,5.49
2023-04-26T05:49:07.107Z,5.63
2023-04-26T05:51:33.751Z,5.73
2023-04-26T05:54:02.580Z,5.76
2023-04-26T05:56:29.188Z,5.87
2023-04-26T05:58:58.130Z,5.89
2023-04-26T06:01:24.711Z,5.99
2023-04-26T06:03:51.592Z,5.74
2023-04-26T06:06:23.816Z,5.91
2023-04-26T06:08:50.393Z,5.95
2023-04-26T06:11:21.787Z,5.73
2023-04-26T06:13:51.495Z,5.74
2023-04-26T06:16:18.399Z,5.74
2023-04-26T06:18:45.113Z,5.97
2023-04-26T06:21:14.091Z,6.09
2023-04-26T06:23:40.619Z,5.63
2023-04-26T06:26:07.203Z,6.03
2023-04-26T06:28:33.771Z,6.11
2023-04-26T06:31:00.361Z,6.04
2023-04-26T06:33:29.298Z,5.88
2023-04-26T06:36:00.638Z,5.56
2023-04-26T06:38:29.468Z,5.63
2023-04-26T06:40:56.798Z,5.82
2023-04-26T06:43:23.381Z,5.77
2023-04-26T06:45:52.004Z,5.84
2023-04-26T06:48:18.660Z,5.84
2023-04-26T06:50:45.256Z,5.71
2023-04-26T06:53:14.323Z,5.70
2023-04-26T06:55:43.204Z,6.00
2023-04-26T06:58:09.970Z,6.23
2023-04-26T07:00:36.540Z,5.94
2023-04-26T07:03:03.227Z,6.09
2023-04-26T07:05:32.113Z,5.89
2023-04-26T07:08:00.937Z,6.19
2023-04-26T07:10:27.886Z,5.88
2023-04-26T07:12:54.560Z,5.93
2023-04-26T07:15:25.880Z,6.42
2023-04-26T07:17:54.791Z,6.55
2023-04-26T07:20:24.293Z,6.64
2023-04-26T07:22:53.650Z,6.51
2023-04-26T07:25:22.596Z,6.03
2023-04-26T07:27:52.185Z,6.34
2023-04-26T07:30:18.724Z,6.41
2023-04-26T07:32:53.292Z,6.21
2023-04-26T07:35:22.998Z,6.39
2023-04-26T07:37:49.610Z,6.31
2023-04-26T07:40:18.835Z,6.22
2023-04-26T07:42:45.582Z,6.29
2023-04-26T07:45:12.499Z,6.24
2023-04-26T07:47:43.805Z,6.64
2023-04-26T07:50:11.271Z,6.60
2023-04-26T07:52:38.243Z,6.49
2023-04-26T07:55:05.444Z,6.39
2023-04-26T07:57:32.014Z,6.55
2023-04-26T08:00:00.894Z,6.82
2023-04-26T08:02:43.514Z,7.06
2023-04-26T08:05:11.848Z,7.13
2023-04-26T08:07:38.533Z,6.92
2023-04-26T08:10:05.716Z,6.91
2023-04-26T08:12:34.060Z,6.96
2023-04-26T08:15:01.499Z,7.10
2023-04-26T08:17:28.270Z,7.27
2023-04-26T08:19:54.844Z,7.44
2023-04-26T08:22:21.378Z,7.43
2023-04-26T08:24:51.320Z,7.58
2023-04-26T08:27:19.204Z,7.73
2023-04-26T08:29:46.519Z,7.53
2023-04-26T08:32:15.448Z,7.82
2023-04-26T08:34:42.006Z,8.30
2023-04-26T08:37:11.091Z,8.03
2023-04-26T08:39:40.594Z,8.63
2023-04-26T08:42:15.185Z,8.33
2023-04-26T08:44:43.782Z,8.53
2023-04-26T08:47:19.176Z,8.10
2023-04-26T08:49:53.654Z,8.04
2023-04-26T08:52:23.487Z,8.08
2023-04-26T08:54:52.009Z,8.26
2023-04-26T08:57:18.685Z,8.74
2023-04-26T08:59:47.975Z,8.63
2023-04-26T09:02:19.119Z,8.97
2023-04-26T09:04:49.051Z,8.88
2023-04-26T09:07:30.984Z,9.18
2023-04-26T09:10:04.168Z,9.04
2023-04-26T09:12:30.911Z,8.88
2023-04-26T09:15:01.122Z,9.14
2023-04-26T09:17:31.486Z,9.12
2023-04-26T09:20:07.830Z,9.50
2023-04-26T09:22:36.260Z,9.35
2023-04-26T09:25:05.499Z,9.41
2023-04-26T09:27:37.918Z,9.60
2023-04-26T09:30:18.560Z,9.54
2023-04-26T09:32:46.226Z,9.84
2023-04-26T09:35:33.828Z,9.80
2023-04-26T09:38:14.291Z,10.78
2023-04-26T09:40:48.323Z,11.36
2023-04-26T09:43:21.826Z,11.10
2023-04-26T09:45:54.753Z,10.91
2023-04-26T09:48:34.893Z,10.73
2023-04-26T09:51:04.488Z,10.74
2023-04-26T09:53:37.430Z,11.28
2023-04-26T09:56:08.446Z,10.98
2023-04-26T09:58:37.809Z,11.65
2023-04-26T10:01:07.887Z,11.57
2023-04-26T10:03:37.440Z,11.41
2023-04-26T10:06:04.810Z,11.66
2023-04-26T10:08:33.124Z,11.81
2023-04-26T10:11:04.286Z,11.76
2023-04-26T10:13:35.307Z,12.52
2023-04-26T10:16:07.056Z,12.61
2023-04-26T10:18:36.772Z,12.20
2023-04-26T10:21:18.548Z,12.81
2023-04-26T10:23:48.848Z,12.69
2023-04-26T10:26:48.575Z,12.51
2023-04-26T10:29:15.393Z,12.43
2023-04-26T10:32:07.017Z,12.53
2023-04-26T10:34:36.231Z,12.82
2023-04-26T10:37:12.306Z,13.07
2023-04-26T10:39:42.635Z,12.89
2023-04-26T10:42:26.665Z,13.92
2023-04-26T10:44:56.612Z,14.18
2023-04-26T10:47:32.342Z,13.32
2023-04-26T10:50:10.746Z,12.60
2023-04-26T10:52:58.507Z,13.22
2023-04-26T10:55:41.805Z,13.86
2023-04-26T10:58:31.698Z,14.36
2023-04-26T11:01:11.779Z,13.92
2023-04-26T11:03:41.296Z,14.73
2023-04-26T11:06:09.973Z,14.68
2023-04-26T11:08:37.121Z,14.18
2023-04-26T11:11:03.621Z,14.04
2023-04-26T11:13:35.958Z,14.62
2023-04-26T11:16:10.698Z,15.21
2023-04-26T11:18:39.816Z,14.82
2023-04-26T11:21:09.393Z,14.68
2023-04-26T11:23:38.927Z,13.36
2023-04-26T11:26:09.542Z,13.93
2023-04-26T11:28:37.808Z,13.81
2023-04-26T11:31:09.611Z,13.98
2023-04-26T11:33:36.282Z,14.82
2023-04-26T11:36:03.535Z,15.02
2023-04-26T11:38:30.401Z,14.14
2023-04-26T11:41:03.912Z,14.04
2023-04-26T11:43:42.732Z,14.18
2023-04-26T11:46:13.895Z,14.24
2023-04-26T11:48:41.259Z,13.53
2023-04-26T11:51:08.958Z,14.03
2023-04-26T11:53:43.034Z,13.72
2023-04-26T11:56:18.966Z,13.99
2023-04-26T11:58:49.870Z,14.15
2023-04-26T12:01:25.768Z,14.24
2023-04-26T12:04:01.654Z,14.15
2023-04-26T12:06:45.181Z,14.18
2023-04-26T12:09:17.615Z,14.28
2023-04-26T12:12:06.473Z,14.58
2023-04-26T12:14:34.188Z,14.22
2023-04-26T12:17:03.131Z,14.99
2023-04-26T12:19:39.555Z,15.21
2023-04-26T12:22:07.425Z,15.42
2023-04-26T12:24:36.605Z,15.38
2023-04-26T12:27:04.539Z,15.32
2023-04-26T12:29:32.091Z,15.10
2023-04-26T12:31:59.698Z,15.02
2023-04-26T12:34:28.896Z,14.75
2023-04-26T12:36:57.844Z,15.23
2023-04-26T12:39:26.871Z,15.30
2023-04-26T12:41:53.792Z,14.98
2023-04-26T12:44:22.093Z,15.26
2023-04-26T12:46:49.259Z,15.12
2023-04-26T12:49:15.835Z,15.10
2023-04-26T12:51:42.437Z,15.57
2023-04-26T12:54:09.255Z,15.37
2023-04-26T12:56:43.601Z,15.47
2023-04-26T12:59:10.398Z,15.52
2023-04-26T13:01:37.153Z,15.46
2023-04-26T13:04:05.977Z,15.45
2023-04-26T13:06:33.325Z,14.85
2023-04-26T13:08:59.994Z,14.73
2023-04-26T13:11:26.693Z,15.28
2023-04-26T13:13:58.038Z,14.60
2023-04-26T13:16:24.615Z,14.91
2023-04-26T13:18:51.718Z,15.21
2023-04-26T13:21:18.268Z,15.40
2023-04-26T13:23:47.457Z,15.29
2023-04-26T13:26:15.002Z,15.84
2023-04-26T13:28:43.764Z,16.26
2023-04-26T13:31:13.061Z,16.52
2023-04-26T13:33:42.641Z,15.70
2023-04-26T13:36:15.805Z,15.62
2023-04-26T13:38:43.140Z,16.43
2023-04-26T13:41:12.282Z,16.29
2023-04-26T13:43:38.997Z,16.01
2023-04-26T13:46:08.092Z,16.25
2023-04-26T13:48:34.680Z,16.26
2023-04-26T13:51:01.279Z,15.99
2023-04-26T13:53:27.854Z,15.81
2023-04-26T13:55:54.378Z,15.59
2023-04-26T13:58:24.004Z,15.26
2023-04-26T14:00:50.593Z,15.43
2023-04-26T14:03:17.358Z,15.43
2023-04-26T14:05:44.060Z,15.54
2023-04-26T14:08:12.739Z,15.26
2023-04-26T14:10:42.052Z,15.63
2023-04-26T14:13:08.608Z,15.82
2023-04-26T14:15:35.137Z,15.58
2023-04-26T14:18:04.187Z,15.17
2023-04-26T14:20:33.223Z,15.04
2023-04-26T14:23:02.364Z,14.63
2023-04-26T14:25:28.957Z,14.83
2023-04-26T14:27:58.972Z,14.68
2023-04-26T14:30:27.869Z,14.42
2023-04-26T14:32:59.474Z,14.66
2023-04-26T14:35:26.363Z,14.94
2023-04-26T14:37:52.939Z,14.99
2023-04-26T14:40:19.600Z,14.57
2023-04-26T14:42:46.354Z,14.53
2023-04-26T14:45:15.713Z,14.47
2023-04-26T14:47:44.677Z,14.23
2023-04-26T14:50:13.680Z,14.90
2023-04-26T14:52:45.582Z,14.72
2023-04-26T14:55:18.611Z,14.68
2023-04-26T14:57:47.947Z,14.91
2023-04-26T15:00:20.103Z,14.68
2023-04-26T15:02:46.846Z,15.16
2023-04-26T15:05:13.576Z,15.10
2023-04-26T15:07:40.570Z,14.86
2023-04-26T15:10:11.281Z,14.78
2023-04-26T15:12:37.850Z,14.64
2023-04-26T15:15:04.898Z,14.47
2023-04-26T15:17:37.077Z,15.04
2023-04-26T15:20:06.325Z,14.70
2023-04-26T15:22:35.317Z,14.67
2023-04-26T15:25:06.521Z,14.85
2023-04-26T15:27:41.145Z,14.91
2023-04-26T15:30:12.725Z,14.59
2023-04-26T15:32:41.441Z,14.48
2023-04-26T15:35:15.191Z,14.03
2023-04-26T15:37:42.031Z,14.02
2023-04-26T15:40:10.569Z,14.14
2023-04-26T15:42:37.716Z,14.57
2023-04-26T15:45:07.166Z,14.55
2023-04-26T15:47:35.628Z,14.20
2023-04-26T15:50:08.045Z,14.57
2023-04-26T15:52:38.567Z,14.67
2023-04-26T15:55:11.205Z,14.72
2023-04-26T15:57:38.067Z,14.30
2023-04-26T16:00:08.396Z,14.49
2023-04-26T16:02:39.605Z,14.14
2023-04-26T16:05:08.369Z,14.00
2023-04-26T16:07:35.202Z,14.39
2023-04-26T16:10:04.981Z,14.35
2023-04-26T16:12:34.118Z,14.19
2023-04-26T16:15:05.230Z,14.22
2023-04-26T16:17:32.029Z,14.06
2023-04-26T16:20:01.438Z,14.04
2023-04-26T16:22:28.548Z,13.60
2023-04-26T16:24:57.327Z,13.90
2023-04-26T16:27:23.948Z,14.04
2023-04-26T16:29:50.626Z,13.85
2023-04-26T16:32:19.594Z,13.89
2023-04-26T16:34:48.585Z,13.63
2023-04-26T16:37:17.414Z,13.68
2023-04-26T16:39:43.964Z,13.59
2023-04-26T16:42:10.644Z,13.75
2023-04-26T16:44:37.214Z,13.56
2023-04-26T16:47:04.034Z,13.53
2023-04-26T16:49:32.803Z,13.57
2023-04-26T16:51:59.317Z,13.44
2023-04-26T16:54:26.500Z,13.28
2023-04-26T16:56:53.425Z,13.42
2023-04-26T16:59:20.502Z,13.26
2023-04-26T17:01:49.480Z,13.28
2023-04-26T17:04:18.961Z,13.16
2023-04-26T17:06:45.953Z,13.25
2023-04-26T17:09:13.063Z,13.23
2023-04-26T17:11:43.529Z,13.03
2023-04-26T17:14:10.479Z,13.09
2023-04-26T17:16:41.968Z,13.01
2023-04-26T17:19:10.934Z,13.14
2023-04-26T17:21:40.614Z,13.05
2023-04-26T17:24:09.683Z,12.87
2023-04-26T17:26:36.641Z,13.00
2023-04-26T17:29:05.971Z,12.93
2023-04-26T17:31:34.852Z,12.81
2023-04-26T17:34:05.898Z,12.76
2023-04-26T17:36:32.441Z,12.78
2023-04-26T17:38:59.099Z,12.73
2023-04-26T17:41:27.965Z,12.68
2023-04-26T17:43:54.586Z,12.55
2023-04-26T17:46:21.393Z,12.41
2023-04-26T17:48:50.519Z,12.44
2023-04-26T17:51:17.286Z,12.41
2023-04-26T17:53:43.861Z,12.44
2023-04-26T17:56:10.602Z,12.45
2023-04-26T17:58:37.167Z,12.40
2023-04-26T18:01:07.304Z,12.41
2023-04-26T18:03:36.500Z,12.35
2023-04-26T18:06:05.977Z,12.43
2023-04-26T18:08:37.550Z,12.28
2023-04-26T18:11:04.299Z,12.33
2023-04-26T18:13:30.881Z,12.19
2023-04-26T18:16:03.379Z,12.18
2023-04-26T18:18:32.226Z,12.25
2023-04-26T18:20:58.768Z,12.16
2023-04-26T18:23:27.794Z,12.24
2023-04-26T18:25:54.961Z,12.26
2023-04-26T18:28:22.059Z,12.22
2023-04-26T18:30:48.629Z,12.17
2023-04-26T18:33:17.969Z,12.06
2023-04-26T18:35:48.774Z,11.92
2023-04-26T18:38:24.233Z,11.55
2023-04-26T18:40:55.449Z,11.74
2023-04-26T18:43:26.840Z,11.71
2023-04-26T18:45:53.562Z,11.61
2023-04-26T18:48:22.657Z,11.57
2023-04-26T18:50:51.996Z,11.29
2023-04-26T18:53:23.913Z,11.30
2023-04-26T18:55:56.321Z,11.26
2023-04-26T18:58:22.881Z,11.14
2023-04-26T19:00:53.517Z,11.09
2023-04-26T19:03:22.998Z,11.11
2023-04-26T19:05:52.299Z,11.11
2023-04-26T19:08:27.186Z,10.96
2023-04-26T19:10:56.647Z,10.77
2023-04-26T19:13:23.310Z,10.85
2023-04-26T19:15:54.414Z,10.87
2023-04-26T19:18:23.329Z,10.89
2023-04-26T19:20:52.123Z,10.80
2023-04-26T19:23:21.364Z,10.78
2023-04-26T19:25:50.266Z,10.59
2023-04-26T19:28:20.112Z,10.65
2023-04-26T19:30:49.025Z,10.66
2023-04-26T19:33:17.818Z,10.63
2023-04-26T19:35:44.416Z,10.57
2023-04-26T19:38:16.459Z,10.54
2023-04-26T19:40:44.220Z,10.56
2023-04-26T19:43:11.064Z,10.60
2023-04-26T19:45:42.498Z,10.65
2023-04-26T19:48:09.121Z,10.62
2023-04-26T19:50:46.371Z,10.44
2023-04-26T19:53:15.915Z,10.47
2023-04-26T19:55:43.023Z,10.50
2023-04-26T19:58:13.257Z,10.47
2023-04-26T20:00:47.612Z,10.41
2023-04-26T20:03:16.700Z,10.39
2023-04-26T20:05:45.764Z,10.38
2023-04-26T20:08:12.308Z,10.33
2023-04-26T20:10:41.754Z,10.32
2023-04-26T20:13:10.789Z,10.28
2023-04-26T20:15:39.509Z,10.28
2023-04-26T20:18:06.288Z,10.25
2023-04-26T20:20:32.979Z,10.26
2023-04-26T20:22:59.523Z,10.24
2023-04-26T20:25:28.438Z,10.23
2023-04-26T20:27:57.602Z,10.24
2023-04-26T20:30:24.250Z,10.17
2023-04-26T20:32:53.071Z,10.16
2023-04-26T20:35:19.844Z,10.14
2023-04-26T20:37:48.713Z,10.12
2023-04-26T20:40:17.798Z,10.10
2023-04-26T20:42:46.798Z,10.17
2023-04-26T20:45:19.259Z,10.14
2023-04-26T20:47:47.024Z,10.12
2023-04-26T20:50:13.640Z,10.11
2023-04-26T20:52:40.247Z,10.15
2023-04-26T20:55:07.460Z,10.08
2023-04-26T20:57:34.051Z,10.09
2023-04-26T21:00:00.733Z,10.17
2023-04-26T21:02:32.699Z,10.14
2023-04-26T21:04:59.376Z,10.16
2023-04-26T21:07:26.106Z,10.11
2023-04-26T21:09:52.637Z,10.12
2023-04-26T21:12:19.293Z,10.17
2023-04-26T21:14:50.437Z,10.14
2023-04-26T21:17:17.163Z,10.08
2023-04-26T21:19:44.589Z,9.87
2023-04-26T21:22:14.120Z,9.94
2023-04-26T21:24:43.137Z,10.01
2023-04-26T21:27:09.830Z,10.04
2023-04-26T21:29:39.438Z,10.01
2023-04-26T21:32:11.681Z,10.01
2023-04-26T21:34:40.479Z,9.98
2023-04-26T21:37:07.051Z,9.94
2023-04-26T21:39:38.097Z,9.97
2023-04-26T21:42:07.203Z,9.96
2023-04-26T21:44:33.797Z,9.92
2023-04-26T21:47:00.607Z,9.87
2023-04-26T21:49:27.297Z,9.87
2023-04-26T21:51:53.830Z,9.84
2023-04-26T21:54:20.418Z,9.82
2023-04-26T21:56:49.481Z,9.87
2023-04-26T21:59:19.724Z,9.84
2023-04-26T22:01:46.346Z,9.86
2023-04-26T22:04:15.571Z,9.84
2023-04-26T22:06:42.290Z,9.84
2023-04-26T22:09:10.246Z,9.81
2023-04-26T22:11:42.265Z,9.77
2023-04-26T22:14:13.632Z,9.73
2023-04-26T22:16:40.211Z,9.68
2023-04-26T22:19:06.918Z,9.63
2023-04-26T22:21:33.520Z,9.58
2023-04-26T22:24:02.375Z,9.52
2023-04-26T22:26:29.005Z,9.49
2023-04-26T22:28:56.034Z,9.52
2023-04-26T22:31:25.235Z,9.57
2023-04-26T22:33:51.819Z,9.58
2023-04-26T22:36:20.792Z,9.63
2023-04-26T22:38:47.310Z,9.68
2023-04-26T22:41:16.372Z,9.66
2023-04-26T22:43:44.676Z,9.67
2023-04-26T22:46:11.743Z,9.66
2023-04-26T22:48:38.410Z,9.59
2023-04-26T22:51:09.757Z,9.57
2023-04-26T22:53:36.301Z,9.64
2023-04-26T22:56:07.844Z,9.63
2023-04-26T22:58:36.628Z,9.62
2023-04-26T23:01:05.532Z,9.60
2023-04-26T23:03:35.796Z,9.47
2023-04-26T23:06:06.311Z,9.39
2023-04-26T23:08:32.867Z,9.42
2023-04-26T23:10:59.458Z,9.45
2023-04-26T23:13:29.564Z,9.45
2023-04-26T23:15:58.243Z,9.46
2023-04-26T23:18:32.086Z,9.43
2023-04-26T23:20:58.650Z,9.33
2023-04-26T23:23:27.733Z,9.33
2023-04-26T23:25:54.341Z,9.29
2023-04-26T23:28:23.083Z,9.25
2023-04-26T23:30:49.638Z,9.18
2023-04-26T23:33:16.682Z,9.24
2023-04-26T23:35:45.620Z,9.29
2023-04-26T23:38:14.598Z,9.24
2023-04-26T23:40:41.548Z,9.24
2023-04-26T23:43:08.277Z,9.27
2023-04-26T23:45:34.816Z,9.27
2023-04-26T23:48:01.918Z,9.28
2023-04-26T23:50:30.738Z,9.24
2023-04-26T23:52:59.576Z,9.23
2023-04-26T23:55:28.483Z,9.25
2023-04-26T23:57:55.025Z,9.25
